sensor_id;sensor_type;location;lat;lon;timestamp;pressure;altitude;pressure_sealevel;temperature;humidity
80749;BME280;70145;53.746;9.970;2023-12-22T00:02:06;98481.22;;;3.08;47.86
80749;BME280;70145;53.746;9.970;2023-12-22T00:04:31;98484.97;;;2.96;47.59
80749;BME280;70145;53.746;9.970;2023-12-22T00:06:56;98505.72;;;3.02;47.94
80749;BME280;70145;53.746;9.970;2023-12-22T00:09:21;98509.09;;;3.04;48.19
80749;BME280;70145;53.746;9.970;2023-12-22T00:11:47;98513.63;;;2.93;48.41
80749;BME280;70145;53.746;9.970;2023-12-22T00:14:12;98503.47;;;3.07;48.11
80749;BME280;70145;53.746;9.970;2023-12-22T00:16:38;98499.00;;;3.08;48.31
80749;BME280;70145;53.746;9.970;2023-12-22T00:19:03;98503.50;;;3.17;48.31
80749;BME280;70145;53.746;9.970;2023-12-22T00:21:29;98511.88;;;3.22;48.70
80749;BME280;70145;53.746;9.970;2023-12-22T00:23:54;98524.78;;;3.17;48.18
80749;BME280;70145;53.746;9.970;2023-12-22T00:26:19;98518.91;;;3.23;48.54
80749;BME280;70145;53.746;9.970;2023-12-22T00:28:45;98512.03;;;3.20;48.81
80749;BME280;70145;53.746;9.970;2023-12-22T00:31:10;98522.41;;;3.23;48.61
80749;BME280;70145;53.746;9.970;2023-12-22T00:33:37;98537.09;;;3.18;48.58
80749;BME280;70145;53.746;9.970;2023-12-22T00:36:03;98534.97;;;3.12;48.80
80749;BME280;70145;53.746;9.970;2023-12-22T00:38:29;98532.34;;;3.21;48.59
80749;BME280;70145;53.746;9.970;2023-12-22T00:40:54;98537.38;;;3.15;49.57
80749;BME280;70145;53.746;9.970;2023-12-22T00:43:19;98537.69;;;3.21;49.12
80749;BME280;70145;53.746;9.970;2023-12-22T00:45:44;98534.03;;;3.22;49.28
80749;BME280;70145;53.746;9.970;2023-12-22T00:48:10;98546.34;;;3.23;49.18
80749;BME280;70145;53.746;9.970;2023-12-22T00:50:35;98538.50;;;3.22;49.13
80749;BME280;70145;53.746;9.970;2023-12-22T00:53:00;98546.78;;;3.38;49.37
80749;BME280;70145;53.746;9.970;2023-12-22T00:55:25;98553.81;;;3.39;49.59
80749;BME280;70145;53.746;9.970;2023-12-22T00:57:51;98567.13;;;3.39;49.67
80749;BME280;70145;53.746;9.970;2023-12-22T01:00:16;98558.28;;;3.39;49.58
80749;BME280;70145;53.746;9.970;2023-12-22T01:02:42;98561.22;;;3.36;49.61
80749;BME280;70145;53.746;9.970;2023-12-22T01:05:07;98554.63;;;3.40;50.00
80749;BME280;70145;53.746;9.970;2023-12-22T01:07:32;98557.56;;;3.37;49.98
80749;BME280;70145;53.746;9.970;2023-12-22T01:09:58;98548.59;;;3.28;50.58
80749;BME280;70145;53.746;9.970;2023-12-22T01:12:27;98555.31;;;3.32;49.63
80749;BME280;70145;53.746;9.970;2023-12-22T01:14:53;98551.16;;;3.39;50.40
80749;BME280;70145;53.746;9.970;2023-12-22T01:17:19;98553.38;;;3.34;49.92
80749;BME280;70145;53.746;9.970;2023-12-22T01:19:44;98551.16;;;3.39;50.24
80749;BME280;70145;53.746;9.970;2023-12-22T01:22:10;98564.31;;;3.41;50.83
80749;BME280;70145;53.746;9.970;2023-12-22T01:24:35;98563.88;;;3.36;51.65
80749;BME280;70145;53.746;9.970;2023-12-22T01:27:04;98578.00;;;3.26;52.71
80749;BME280;70145;53.746;9.970;2023-12-22T01:29:29;98561.97;;;3.07;54.17
80749;BME280;70145;53.746;9.970;2023-12-22T01:31:55;98558.50;;;3.07;53.99
80749;BME280;70145;53.746;9.970;2023-12-22T01:34:20;98582.56;;;3.05;53.89
80749;BME280;70145;53.746;9.970;2023-12-22T01:36:45;98595.13;;;3.03;54.39
80749;BME280;70145;53.746;9.970;2023-12-22T01:39:11;98589.53;;;2.97;54.59
80749;BME280;70145;53.746;9.970;2023-12-22T01:41:36;98594.97;;;2.95;54.66
80749;BME280;70145;53.746;9.970;2023-12-22T01:44:01;98597.78;;;2.94;55.04
80749;BME280;70145;53.746;9.970;2023-12-22T01:46:27;98581.06;;;2.82;55.23
80749;BME280;70145;53.746;9.970;2023-12-22T01:48:52;98600.56;;;2.92;54.98
80749;BME280;70145;53.746;9.970;2023-12-22T01:51:18;98602.50;;;2.90;54.97
80749;BME280;70145;53.746;9.970;2023-12-22T01:53:44;98605.00;;;2.82;55.09
80749;BME280;70145;53.746;9.970;2023-12-22T01:56:10;98596.03;;;2.83;54.82
80749;BME280;70145;53.746;9.970;2023-12-22T01:58:36;98584.94;;;2.78;55.22
80749;BME280;70145;53.746;9.970;2023-12-22T02:01:02;98605.50;;;2.76;54.76
80749;BME280;70145;53.746;9.970;2023-12-22T02:03:28;98592.63;;;2.72;55.34
80749;BME280;70145;53.746;9.970;2023-12-22T02:05:54;98595.88;;;2.75;55.10
80749;BME280;70145;53.746;9.970;2023-12-22T02:08:20;98596.56;;;2.77;55.00
80749;BME280;70145;53.746;9.970;2023-12-22T02:10:47;98582.13;;;2.70;55.79
80749;BME280;70145;53.746;9.970;2023-12-22T02:13:12;98593.59;;;2.71;55.17
80749;BME280;70145;53.746;9.970;2023-12-22T02:15:38;98600.31;;;2.75;55.20
80749;BME280;70145;53.746;9.970;2023-12-22T02:18:12;98602.53;;;2.70;55.43
80749;BME280;70145;53.746;9.970;2023-12-22T02:20:39;98600.47;;;2.73;55.70
80749;BME280;70145;53.746;9.970;2023-12-22T02:23:06;98590.63;;;2.64;55.78
80749;BME280;70145;53.746;9.970;2023-12-22T02:25:31;98591.59;;;2.63;55.86
80749;BME280;70145;53.746;9.970;2023-12-22T02:28:01;98605.91;;;2.51;57.04
80749;BME280;70145;53.746;9.970;2023-12-22T02:33:01;98613.19;;;2.49;57.09
80749;BME280;70145;53.746;9.970;2023-12-22T02:35:29;98632.72;;;2.28;58.63
80749;BME280;70145;53.746;9.970;2023-12-22T02:37:59;98613.50;;;2.35;58.02
80749;BME280;70145;53.746;9.970;2023-12-22T02:40:26;98614.22;;;2.37;57.34
80749;BME280;70145;53.746;9.970;2023-12-22T02:42:53;98591.34;;;2.25;58.52
80749;BME280;70145;53.746;9.970;2023-12-22T02:45:19;98599.91;;;2.29;58.01
80749;BME280;70145;53.746;9.970;2023-12-22T02:47:45;98603.84;;;2.34;57.60
80749;BME280;70145;53.746;9.970;2023-12-22T02:50:13;98613.19;;;2.29;58.20
80749;BME280;70145;53.746;9.970;2023-12-22T02:52:39;98607.06;;;2.17;59.27
80749;BME280;70145;53.746;9.970;2023-12-22T02:55:05;98624.94;;;2.15;58.86
80749;BME280;70145;53.746;9.970;2023-12-22T02:57:30;98628.16;;;1.98;59.99
80749;BME280;70145;53.746;9.970;2023-12-22T02:59:56;98618.28;;;1.89;60.16
80749;BME280;70145;53.746;9.970;2023-12-22T03:02:21;98617.47;;;1.78;60.62
80749;BME280;70145;53.746;9.970;2023-12-22T03:04:47;98623.13;;;1.84;60.07
80749;BME280;70145;53.746;9.970;2023-12-22T03:07:12;98623.59;;;1.89;59.58
80749;BME280;70145;53.746;9.970;2023-12-22T03:09:39;98629.38;;;1.94;59.20
80749;BME280;70145;53.746;9.970;2023-12-22T03:12:04;98617.44;;;1.89;59.42
80749;BME280;70145;53.746;9.970;2023-12-22T03:14:30;98620.94;;;1.89;59.10
80749;BME280;70145;53.746;9.970;2023-12-22T03:16:58;98622.25;;;1.95;58.96
80749;BME280;70145;53.746;9.970;2023-12-22T03:19:23;98612.13;;;1.89;59.72
80749;BME280;70145;53.746;9.970;2023-12-22T03:21:49;98615.63;;;1.89;58.90
80749;BME280;70145;53.746;9.970;2023-12-22T03:24:14;98612.03;;;1.79;59.09
80749;BME280;70145;53.746;9.970;2023-12-22T03:26:40;98615.19;;;1.73;59.08
80749;BME280;70145;53.746;9.970;2023-12-22T03:29:05;98607.22;;;1.73;58.92
80749;BME280;70145;53.746;9.970;2023-12-22T03:31:30;98608.59;;;1.68;58.54
80749;BME280;70145;53.746;9.970;2023-12-22T03:33:56;98595.78;;;1.73;58.78
80749;BME280;70145;53.746;9.970;2023-12-22T03:36:21;98588.22;;;1.68;58.64
80749;BME280;70145;53.746;9.970;2023-12-22T03:38:46;98582.81;;;1.59;58.95
80749;BME280;70145;53.746;9.970;2023-12-22T03:41:12;98586.97;;;1.72;58.77
80749;BME280;70145;53.746;9.970;2023-12-22T03:43:37;98580.38;;;1.67;58.75
80749;BME280;70145;53.746;9.970;2023-12-22T03:46:02;98579.97;;;1.71;58.60
80749;BME280;70145;53.746;9.970;2023-12-22T03:48:28;98584.59;;;1.58;59.15
80749;BME280;70145;53.746;9.970;2023-12-22T03:50:53;98576.91;;;1.55;58.70
80749;BME280;70145;53.746;9.970;2023-12-22T03:53:18;98568.22;;;1.53;58.64
80749;BME280;70145;53.746;9.970;2023-12-22T03:55:44;98565.09;;;1.59;58.80
80749;BME280;70145;53.746;9.970;2023-12-22T03:58:10;98579.94;;;1.51;59.10
80749;BME280;70145;53.746;9.970;2023-12-22T04:00:35;98563.06;;;1.52;59.06
80749;BME280;70145;53.746;9.970;2023-12-22T04:03:01;98559.41;;;1.64;58.66
80749;BME280;70145;53.746;9.970;2023-12-22T04:05:27;98571.81;;;1.63;58.90
80749;BME280;70145;53.746;9.970;2023-12-22T04:07:52;98576.38;;;1.72;58.68
80749;BME280;70145;53.746;9.970;2023-12-22T04:10:17;98566.19;;;1.77;58.49
80749;BME280;70145;53.746;9.970;2023-12-22T04:12:43;98553.66;;;1.79;58.50
80749;BME280;70145;53.746;9.970;2023-12-22T04:15:08;98563.03;;;1.83;58.28
80749;BME280;70145;53.746;9.970;2023-12-22T04:17:34;98589.47;;;1.85;58.57
80749;BME280;70145;53.746;9.970;2023-12-22T04:19:59;98575.09;;;1.87;59.16
80749;BME280;70145;53.746;9.970;2023-12-22T04:22:24;98579.94;;;1.82;59.23
80749;BME280;70145;53.746;9.970;2023-12-22T04:24:49;98579.81;;;1.84;59.06
80749;BME280;70145;53.746;9.970;2023-12-22T04:27:15;98573.16;;;1.89;58.99
80749;BME280;70145;53.746;9.970;2023-12-22T04:29:40;98577.22;;;1.93;59.05
80749;BME280;70145;53.746;9.970;2023-12-22T04:32:05;98570.84;;;1.96;59.18
80749;BME280;70145;53.746;9.970;2023-12-22T04:34:31;98593.16;;;1.93;59.87
80749;BME280;70145;53.746;9.970;2023-12-22T04:36:56;98602.97;;;1.93;59.90
80749;BME280;70145;53.746;9.970;2023-12-22T04:39:21;98593.75;;;1.97;59.91
80749;BME280;70145;53.746;9.970;2023-12-22T04:41:46;98596.28;;;1.98;59.67
80749;BME280;70145;53.746;9.970;2023-12-22T04:44:11;98566.88;;;1.90;60.70
80749;BME280;70145;53.746;9.970;2023-12-22T04:46:37;98546.09;;;1.95;60.38
80749;BME280;70145;53.746;9.970;2023-12-22T04:49:02;98561.66;;;2.00;60.04
80749;BME280;70145;53.746;9.970;2023-12-22T04:51:27;98562.16;;;1.94;59.90
80749;BME280;70145;53.746;9.970;2023-12-22T04:53:53;98576.47;;;2.02;59.58
80749;BME280;70145;53.746;9.970;2023-12-22T04:56:18;98589.63;;;2.04;59.81
80749;BME280;70145;53.746;9.970;2023-12-22T04:58:43;98590.88;;;1.89;59.54
80749;BME280;70145;53.746;9.970;2023-12-22T05:01:08;98582.75;;;2.01;59.52
80749;BME280;70145;53.746;9.970;2023-12-22T05:03:34;98565.66;;;1.94;59.23
80749;BME280;70145;53.746;9.970;2023-12-22T05:05:59;98586.19;;;1.92;59.47
80749;BME280;70145;53.746;9.970;2023-12-22T05:08:24;98585.94;;;1.84;58.32
80749;BME280;70145;53.746;9.970;2023-12-22T05:10:50;98581.69;;;1.72;57.78
80749;BME280;70145;53.746;9.970;2023-12-22T05:13:15;98572.00;;;1.82;58.19
80749;BME280;70145;53.746;9.970;2023-12-22T05:15:40;98570.97;;;1.94;58.06
80749;BME280;70145;53.746;9.970;2023-12-22T05:18:06;98570.00;;;1.95;57.44
80749;BME280;70145;53.746;9.970;2023-12-22T05:20:31;98575.34;;;1.84;57.10
80749;BME280;70145;53.746;9.970;2023-12-22T05:22:57;98580.34;;;1.98;57.42
80749;BME280;70145;53.746;9.970;2023-12-22T05:25:22;98584.56;;;2.01;56.94
80749;BME280;70145;53.746;9.970;2023-12-22T05:27:47;98590.34;;;2.06;56.90
80749;BME280;70145;53.746;9.970;2023-12-22T05:30:13;98612.47;;;1.95;57.23
80749;BME280;70145;53.746;9.970;2023-12-22T05:32:38;98647.44;;;2.00;56.95
80749;BME280;70145;53.746;9.970;2023-12-22T05:35:04;98684.41;;;1.92;58.40
80749;BME280;70145;53.746;9.970;2023-12-22T05:37:29;98699.16;;;1.74;58.47
80749;BME280;70145;53.746;9.970;2023-12-22T05:39:55;98698.56;;;1.60;58.79
80749;BME280;70145;53.746;9.970;2023-12-22T05:42:20;98662.75;;;1.54;59.30
80749;BME280;70145;53.746;9.970;2023-12-22T05:44:46;98625.78;;;1.42;59.15
80749;BME280;70145;53.746;9.970;2023-12-22T05:47:14;98620.47;;;1.31;59.21
80749;BME280;70145;53.746;9.970;2023-12-22T05:49:40;98638.66;;;1.35;58.59
80749;BME280;70145;53.746;9.970;2023-12-22T05:52:06;98643.41;;;1.32;58.14
80749;BME280;70145;53.746;9.970;2023-12-22T05:54:31;98675.47;;;1.29;58.36
80749;BME280;70145;53.746;9.970;2023-12-22T05:56:56;98654.22;;;1.18;58.28
80749;BME280;70145;53.746;9.970;2023-12-22T05:59:22;98664.00;;;1.28;57.79
80749;BME280;70145;53.746;9.970;2023-12-22T06:01:47;98678.56;;;1.34;57.62
80749;BME280;70145;53.746;9.970;2023-12-22T06:04:12;98686.53;;;1.23;57.55
80749;BME280;70145;53.746;9.970;2023-12-22T06:06:37;98708.00;;;1.20;57.76
80749;BME280;70145;53.746;9.970;2023-12-22T06:09:04;98717.97;;;1.16;57.87
80749;BME280;70145;53.746;9.970;2023-12-22T06:11:29;98725.47;;;1.11;58.08
80749;BME280;70145;53.746;9.970;2023-12-22T06:13:54;98712.78;;;0.92;59.30
80749;BME280;70145;53.746;9.970;2023-12-22T06:16:20;98697.13;;;1.00;59.10
80749;BME280;70145;53.746;9.970;2023-12-22T06:18:45;98699.91;;;0.99;59.63
80749;BME280;70145;53.746;9.970;2023-12-22T06:21:10;98689.28;;;0.88;59.65
80749;BME280;70145;53.746;9.970;2023-12-22T06:23:36;98690.97;;;0.89;60.28
80749;BME280;70145;53.746;9.970;2023-12-22T06:26:08;98703.28;;;1.01;59.91
80749;BME280;70145;53.746;9.970;2023-12-22T06:28:33;98707.16;;;0.97;59.73
80749;BME280;70145;53.746;9.970;2023-12-22T06:31:01;98708.34;;;1.04;59.49
80749;BME280;70145;53.746;9.970;2023-12-22T06:33:26;98704.00;;;1.03;59.05
80749;BME280;70145;53.746;9.970;2023-12-22T06:35:51;98721.69;;;0.91;58.87
80749;BME280;70145;53.746;9.970;2023-12-22T06:38:19;98726.16;;;0.91;58.85
80749;BME280;70145;53.746;9.970;2023-12-22T06:40:44;98716.78;;;0.98;58.52
80749;BME280;70145;53.746;9.970;2023-12-22T06:43:11;98730.25;;;1.06;58.16
80749;BME280;70145;53.746;9.970;2023-12-22T06:45:36;98737.97;;;1.09;57.71
80749;BME280;70145;53.746;9.970;2023-12-22T06:48:02;98744.66;;;1.15;58.01
80749;BME280;70145;53.746;9.970;2023-12-22T06:50:27;98743.78;;;1.14;57.62
80749;BME280;70145;53.746;9.970;2023-12-22T06:52:52;98745.00;;;1.10;57.57
80749;BME280;70145;53.746;9.970;2023-12-22T06:55:18;98754.13;;;1.06;57.37
80749;BME280;70145;53.746;9.970;2023-12-22T06:57:43;98753.53;;;1.14;57.17
80749;BME280;70145;53.746;9.970;2023-12-22T07:00:09;98770.31;;;1.14;57.81
80749;BME280;70145;53.746;9.970;2023-12-22T07:02:34;98785.00;;;1.07;57.56
80749;BME280;70145;53.746;9.970;2023-12-22T07:07:35;98795.66;;;0.94;58.37
80749;BME280;70145;53.746;9.970;2023-12-22T07:10:00;98815.81;;;0.97;58.26
80749;BME280;70145;53.746;9.970;2023-12-22T07:12:26;98792.44;;;1.02;57.58
80749;BME280;70145;53.746;9.970;2023-12-22T07:14:51;98802.47;;;1.10;57.58
80749;BME280;70145;53.746;9.970;2023-12-22T07:17:16;98795.47;;;1.09;57.65
80749;BME280;70145;53.746;9.970;2023-12-22T07:19:42;98804.78;;;1.14;57.37
80749;BME280;70145;53.746;9.970;2023-12-22T07:22:07;98793.88;;;1.06;56.97
80749;BME280;70145;53.746;9.970;2023-12-22T07:24:32;98794.88;;;1.16;56.23
80749;BME280;70145;53.746;9.970;2023-12-22T07:26:58;98824.31;;;1.13;56.86
80749;BME280;70145;53.746;9.970;2023-12-22T07:29:23;98813.59;;;1.15;56.14
80749;BME280;70145;53.746;9.970;2023-12-22T07:31:48;98831.88;;;1.18;55.93
80749;BME280;70145;53.746;9.970;2023-12-22T07:34:13;98838.44;;;1.25;56.36
80749;BME280;70145;53.746;9.970;2023-12-22T07:36:40;98840.72;;;1.29;55.70
80749;BME280;70145;53.746;9.970;2023-12-22T07:39:05;98847.03;;;1.39;56.03
80749;BME280;70145;53.746;9.970;2023-12-22T07:41:31;98855.34;;;1.46;55.93
80749;BME280;70145;53.746;9.970;2023-12-22T07:43:57;98854.47;;;1.34;55.23
80749;BME280;70145;53.746;9.970;2023-12-22T07:46:22;98862.09;;;1.50;55.30
80749;BME280;70145;53.746;9.970;2023-12-22T07:48:48;98847.38;;;1.46;55.25
80749;BME280;70145;53.746;9.970;2023-12-22T07:51:13;98860.06;;;1.53;55.02
80749;BME280;70145;53.746;9.970;2023-12-22T07:53:38;98858.34;;;1.41;55.58
80749;BME280;70145;53.746;9.970;2023-12-22T07:56:04;98871.75;;;1.51;55.49
80749;BME280;70145;53.746;9.970;2023-12-22T07:58:31;98874.75;;;1.46;55.62
80749;BME280;70145;53.746;9.970;2023-12-22T08:00:57;98865.38;;;1.53;55.81
80749;BME280;70145;53.746;9.970;2023-12-22T08:03:22;98895.75;;;1.49;56.41
80749;BME280;70145;53.746;9.970;2023-12-22T08:05:47;98887.16;;;1.35;57.66
80749;BME280;70145;53.746;9.970;2023-12-22T08:08:13;98906.00;;;1.19;59.10
80749;BME280;70145;53.746;9.970;2023-12-22T08:10:38;98907.59;;;1.22;58.88
80749;BME280;70145;53.746;9.970;2023-12-22T08:13:03;98905.75;;;1.11;59.42
80749;BME280;70145;53.746;9.970;2023-12-22T08:15:29;98919.78;;;1.24;59.02
80749;BME280;70145;53.746;9.970;2023-12-22T08:17:54;98917.34;;;1.21;59.29
80749;BME280;70145;53.746;9.970;2023-12-22T08:20:20;98912.28;;;1.18;59.09
80749;BME280;70145;53.746;9.970;2023-12-22T08:22:49;98926.28;;;1.20;59.02
80749;BME280;70145;53.746;9.970;2023-12-22T08:25:16;98919.16;;;1.21;59.07
80749;BME280;70145;53.746;9.970;2023-12-22T08:27:42;98917.13;;;1.24;59.31
80749;BME280;70145;53.746;9.970;2023-12-22T08:30:09;98915.56;;;1.22;58.93
80749;BME280;70145;53.746;9.970;2023-12-22T08:32:34;98922.44;;;1.24;59.05
80749;BME280;70145;53.746;9.970;2023-12-22T08:34:59;98932.28;;;1.22;58.72
80749;BME280;70145;53.746;9.970;2023-12-22T08:37:25;98931.13;;;1.26;59.20
80749;BME280;70145;53.746;9.970;2023-12-22T08:39:50;98924.34;;;1.22;58.72
80749;BME280;70145;53.746;9.970;2023-12-22T08:42:16;98940.03;;;1.25;58.89
80749;BME280;70145;53.746;9.970;2023-12-22T08:44:42;98927.28;;;1.30;58.51
80749;BME280;70145;53.746;9.970;2023-12-22T08:47:07;98925.59;;;1.29;58.88
80749;BME280;70145;53.746;9.970;2023-12-22T08:49:32;98930.19;;;1.38;58.56
80749;BME280;70145;53.746;9.970;2023-12-22T08:51:58;98928.03;;;1.43;58.80
80749;BME280;70145;53.746;9.970;2023-12-22T08:54:23;98928.28;;;1.40;58.18
80749;BME280;70145;53.746;9.970;2023-12-22T08:56:48;98932.00;;;1.38;58.37
80749;BME280;70145;53.746;9.970;2023-12-22T08:59:13;98940.91;;;1.37;58.26
80749;BME280;70145;53.746;9.970;2023-12-22T09:01:39;98943.00;;;1.44;57.74
80749;BME280;70145;53.746;9.970;2023-12-22T09:04:06;98969.81;;;1.52;58.06
80749;BME280;70145;53.746;9.970;2023-12-22T09:06:31;98957.94;;;1.45;57.74
80749;BME280;70145;53.746;9.970;2023-12-22T09:08:57;98972.16;;;1.44;58.08
80749;BME280;70145;53.746;9.970;2023-12-22T09:11:23;98986.66;;;1.51;57.11
80749;BME280;70145;53.746;9.970;2023-12-22T09:13:48;98977.75;;;1.52;57.53
80749;BME280;70145;53.746;9.970;2023-12-22T09:16:13;98967.63;;;1.57;56.75
80749;BME280;70145;53.746;9.970;2023-12-22T09:18:42;98984.53;;;1.56;56.74
80749;BME280;70145;53.746;9.970;2023-12-22T09:21:10;98991.28;;;1.60;56.69
80749;BME280;70145;53.746;9.970;2023-12-22T09:23:35;98989.72;;;1.58;55.85
80749;BME280;70145;53.746;9.970;2023-12-22T09:26:00;98968.38;;;1.59;56.08
80749;BME280;70145;53.746;9.970;2023-12-22T09:28:25;98982.88;;;1.66;56.27
80749;BME280;70145;53.746;9.970;2023-12-22T09:30:51;98998.94;;;1.76;56.01
80749;BME280;70145;53.746;9.970;2023-12-22T09:33:16;99003.41;;;1.75;56.18
80749;BME280;70145;53.746;9.970;2023-12-22T09:35:41;99004.00;;;1.79;55.67
80749;BME280;70145;53.746;9.970;2023-12-22T09:38:08;98992.69;;;1.88;56.43
80749;BME280;70145;53.746;9.970;2023-12-22T09:40:34;98992.00;;;1.97;55.91
80749;BME280;70145;53.746;9.970;2023-12-22T09:43:02;99001.06;;;2.05;56.31
80749;BME280;70145;53.746;9.970;2023-12-22T09:45:30;98985.38;;;2.13;55.97
80749;BME280;70145;53.746;9.970;2023-12-22T09:47:56;98982.47;;;2.16;56.10
80749;BME280;70145;53.746;9.970;2023-12-22T09:50:23;98986.97;;;2.16;56.15
80749;BME280;70145;53.746;9.970;2023-12-22T09:52:48;98990.75;;;2.24;56.03
80749;BME280;70145;53.746;9.970;2023-12-22T09:55:14;98972.84;;;2.26;55.75
80749;BME280;70145;53.746;9.970;2023-12-22T09:57:39;98983.59;;;2.25;55.77
80749;BME280;70145;53.746;9.970;2023-12-22T10:00:09;98994.38;;;2.23;55.38
80749;BME280;70145;53.746;9.970;2023-12-22T10:02:39;98987.38;;;2.33;55.79
80749;BME280;70145;53.746;9.970;2023-12-22T10:05:05;98980.00;;;2.37;55.64
80749;BME280;70145;53.746;9.970;2023-12-22T10:07:31;98991.94;;;2.42;55.61
80749;BME280;70145;53.746;9.970;2023-12-22T10:09:59;98987.72;;;2.40;55.66
80749;BME280;70145;53.746;9.970;2023-12-22T10:12:26;98971.44;;;2.33;55.48
80749;BME280;70145;53.746;9.970;2023-12-22T10:14:52;98995.81;;;2.38;55.26
80749;BME280;70145;53.746;9.970;2023-12-22T10:17:18;98998.94;;;2.54;55.24
80749;BME280;70145;53.746;9.970;2023-12-22T10:19:43;98998.34;;;2.62;55.18
80749;BME280;70145;53.746;9.970;2023-12-22T10:22:09;98986.63;;;2.53;55.14
80749;BME280;70145;53.746;9.970;2023-12-22T10:24:40;98984.81;;;2.43;54.48
80749;BME280;70145;53.746;9.970;2023-12-22T10:27:12;99003.78;;;2.60;54.60
80749;BME280;70145;53.746;9.970;2023-12-22T10:29:38;99009.22;;;2.70;54.62
80749;BME280;70145;53.746;9.970;2023-12-22T10:32:04;98994.84;;;2.61;54.36
80749;BME280;70145;53.746;9.970;2023-12-22T10:34:30;99000.28;;;2.60;54.63
80749;BME280;70145;53.746;9.970;2023-12-22T10:36:56;99007.75;;;2.66;54.60
80749;BME280;70145;53.746;9.970;2023-12-22T10:39:22;98996.28;;;2.65;54.46
80749;BME280;70145;53.746;9.970;2023-12-22T10:41:48;99004.03;;;2.57;54.28
80749;BME280;70145;53.746;9.970;2023-12-22T10:44:16;99010.66;;;2.63;54.08
80749;BME280;70145;53.746;9.970;2023-12-22T10:46:46;99003.53;;;2.63;54.40
80749;BME280;70145;53.746;9.970;2023-12-22T10:49:12;99008.97;;;2.73;54.27
80749;BME280;70145;53.746;9.970;2023-12-22T10:51:37;98995.66;;;2.73;54.12
80749;BME280;70145;53.746;9.970;2023-12-22T10:54:04;98984.22;;;2.72;53.59
80749;BME280;70145;53.746;9.970;2023-12-22T10:56:30;99011.88;;;2.70;54.12
80749;BME280;70145;53.746;9.970;2023-12-22T10:58:56;99012.00;;;2.79;54.44
80749;BME280;70145;53.746;9.970;2023-12-22T11:01:25;99014.28;;;2.62;53.98
80749;BME280;70145;53.746;9.970;2023-12-22T11:03:54;99015.00;;;2.75;54.45
80749;BME280;70145;53.746;9.970;2023-12-22T11:06:24;99014.28;;;2.73;54.03
80749;BME280;70145;53.746;9.970;2023-12-22T11:08:52;99018.03;;;2.70;53.94
80749;BME280;70145;53.746;9.970;2023-12-22T11:11:30;99022.13;;;2.74;54.17
80749;BME280;70145;53.746;9.970;2023-12-22T11:13:59;99008.63;;;2.66;53.61
80749;BME280;70145;53.746;9.970;2023-12-22T11:16:27;99022.38;;;2.71;53.98
80749;BME280;70145;53.746;9.970;2023-12-22T11:18:54;99030.22;;;2.73;54.06
80749;BME280;70145;53.746;9.970;2023-12-22T11:21:24;99034.81;;;2.82;53.80
80749;BME280;70145;53.746;9.970;2023-12-22T11:23:50;99035.53;;;2.73;53.81
80749;BME280;70145;53.746;9.970;2023-12-22T11:26:19;99028.88;;;2.78;53.26
80749;BME280;70145;53.746;9.970;2023-12-22T11:28:46;99028.66;;;2.81;53.45
80749;BME280;70145;53.746;9.970;2023-12-22T11:31:12;99027.72;;;2.82;53.91
80749;BME280;70145;53.746;9.970;2023-12-22T11:33:40;99017.16;;;3.03;53.66
80749;BME280;70145;53.746;9.970;2023-12-22T11:36:08;99016.06;;;3.05;53.88
80749;BME280;70145;53.746;9.970;2023-12-22T11:38:33;99004.56;;;3.05;53.36
80749;BME280;70145;53.746;9.970;2023-12-22T11:41:00;99020.53;;;3.05;53.29
80749;BME280;70145;53.746;9.970;2023-12-22T11:43:26;99010.25;;;3.11;53.68
80749;BME280;70145;53.746;9.970;2023-12-22T11:45:51;99018.69;;;3.16;53.16
80749;BME280;70145;53.746;9.970;2023-12-22T11:48:17;99010.81;;;3.15;53.09
80749;BME280;70145;53.746;9.970;2023-12-22T11:50:43;99007.56;;;3.22;53.54
80749;BME280;70145;53.746;9.970;2023-12-22T11:53:22;99006.81;;;3.32;53.68
80749;BME280;70145;53.746;9.970;2023-12-22T11:58:46;99000.06;;;3.27;54.13
80749;BME280;70145;53.746;9.970;2023-12-22T12:01:17;98994.81;;;3.37;53.92
80749;BME280;70145;53.746;9.970;2023-12-22T12:03:58;98992.09;;;3.48;54.07
80749;BME280;70145;53.746;9.970;2023-12-22T12:08:50;98982.56;;;3.46;53.25
80749;BME280;70145;53.746;9.970;2023-12-22T12:11:16;98992.69;;;3.52;54.24
80749;BME280;70145;53.746;9.970;2023-12-22T12:13:44;98996.66;;;3.57;53.67
80749;BME280;70145;53.746;9.970;2023-12-22T12:16:14;98999.56;;;3.54;53.89
80749;BME280;70145;53.746;9.970;2023-12-22T12:18:41;99000.88;;;3.60;53.53
80749;BME280;70145;53.746;9.970;2023-12-22T12:21:07;99005.75;;;3.55;53.60
80749;BME280;70145;53.746;9.970;2023-12-22T12:23:34;98998.81;;;3.63;54.16
80749;BME280;70145;53.746;9.970;2023-12-22T12:25:59;99007.91;;;3.61;53.90
80749;BME280;70145;53.746;9.970;2023-12-22T12:28:30;98996.34;;;3.51;53.41
80749;BME280;70145;53.746;9.970;2023-12-22T12:31:00;99002.16;;;3.45;52.93
80749;BME280;70145;53.746;9.970;2023-12-22T12:33:26;99007.88;;;3.40;52.69
80749;BME280;70145;53.746;9.970;2023-12-22T12:36:00;99003.09;;;3.55;53.22
80749;BME280;70145;53.746;9.970;2023-12-22T12:41:14;99000.81;;;3.50;52.25
80749;BME280;70145;53.746;9.970;2023-12-22T12:43:42;99008.19;;;3.47;52.56
80749;BME280;70145;53.746;9.970;2023-12-22T12:46:10;99005.53;;;3.47;52.66
80749;BME280;70145;53.746;9.970;2023-12-22T12:48:35;99014.13;;;3.50;52.50
80749;BME280;70145;53.746;9.970;2023-12-22T12:51:05;99008.84;;;3.39;52.59
80749;BME280;70145;53.746;9.970;2023-12-22T12:53:31;98999.63;;;3.43;52.99
80749;BME280;70145;53.746;9.970;2023-12-22T12:55:58;99005.56;;;3.36;52.62
80749;BME280;70145;53.746;9.970;2023-12-22T12:58:30;99003.41;;;3.29;52.92
80749;BME280;70145;53.746;9.970;2023-12-22T13:01:09;99004.69;;;3.14;53.65
80749;BME280;70145;53.746;9.970;2023-12-22T13:03:56;99000.72;;;2.98;54.18
80749;BME280;70145;53.746;9.970;2023-12-22T13:06:21;98998.31;;;2.95;54.16
80749;BME280;70145;53.746;9.970;2023-12-22T13:08:50;99004.00;;;3.01;53.90
80749;BME280;70145;53.746;9.970;2023-12-22T13:11:21;99013.88;;;3.10;54.07
80749;BME280;70145;53.746;9.970;2023-12-22T13:13:47;99010.81;;;3.15;53.85
80749;BME280;70145;53.746;9.970;2023-12-22T13:16:12;99015.06;;;3.17;54.15
80749;BME280;70145;53.746;9.970;2023-12-22T13:18:38;99010.00;;;3.03;54.40